< < Back
Terminal Aerodrome Forecast


Current Version              Previous Versions:   1  2  3  4  5  6  7  8  9  

Terminal Aerodrome Forecast

171
FTUS44 KBMX 271740
TAFBHM
TAF
KBHM 271740Z 2718/2818 03009KT P6SM OVC250
     FM280100 05005KT P6SM OVC250
     FM281500 08011KT P6SM OVC250=



Latest METAR

211
SAUS70 KWBC 272200 RRJ
MTRBHM
METAR KBHM 272153Z 03008KT 10SM BKN250 20/05 A2989 RMK AO2 SLP119
T02000050


USA.gov is the U.S. government's official web portal to all federal, state and local government web resources and services.